To NAV CANADA Home Page Login to a new session Search on AWWS site Feedback and Comments Disclaimer Vers la page française équivalente Tips FAQ What's new on the site To the Forecasts and Observations / NOTAM section To "File a Flight Plan" website Publications and other links Update of the User's profile FIC Telephone Numbers My Weather Data Folder Route Weather Data Regional Weather Data Local Weather Data To the Forecasts and Observations / NOTAM section
Request Generated 12/10/2016 at 16:33:35 UTC . Weather information available at that time is displayed.

METAR/TAF

TRENTON/ON    

METAR CYTR 101600Z 06003KT 15SM BKN093 M06/M11 A3037 RMK AC6 SLP290=
METAR CYTR 101500Z 05002KT 15SM BKN092 M07/M11 A3038 RMK AC6 SLP295=
METAR CYTR 101400Z 35002KT 15SM BKN090 M08/M11 A3037 RMK AC6 SLP292=

TAF CYTR 101130Z 1012/1112 VRB03KT P6SM SCT090
FM101400 VRB03KT P6SM SCT030 BKN070 TEMPO 1018/1024 6SM -SHSN
BKN030 OVC070
FM110000 VRB03KT P6SM SCT030
RMK NXT FCST BY 101800Z=
Your time UTC time
Weather data provided by Environment Canada and NAV CANADA